Nord Imagination — 3FIA8 — position and weather

sailwx.info

Track history (hours):
 
Tides and Currents Weather Stations Pressure Air Temp Water Temp Dewpoint Dewpoint Depression Visibility Wind Speed Wind Dir Waves Ship Positions

Nord Imagination

Last reported at 2017-May-25 18:01 UTC. Time now 2017-May-27 04:26 UTC.
Position N 39°36' W 009°54'.

Length 179 m; draft 8 m.

Type: Ship (hazmat cat D). MMSI: 354828000.

Date/timePositionNaut miles runAvg speedWind from/ knotsBaromVisibWave heightAir tempDewpointWater temp
2017-May-25 18:01N 39°36' W 009°54'212.9
2017-May-25 17:54N 39°35' W 009°54'1013.0
2017-May-25 17:10N 39°25' W 009°54'212.9
2017-May-25 17:01N 39°23' W 009°54'612.7
2017-May-25 16:30N 39°17' W 009°53'613.0
2017-May-25 16:00N 39°10' W 009°53'713.2
2017-May-25 15:30N 39°04' W 009°52'713.1
2017-May-25 15:01N 38°57' W 009°52'1413.8
2017-May-25 14:00N 38°44' W 009°50'612.7
2017-May-25 13:30N 38°38' W 009°47'713.3
2017-May-25 13:00N 38°36' W 009°38'612.0
2017-May-25 12:30N 38°37' W 009°31'510.5
2017-May-25 12:00N 38°38' W 009°24'2 4.9
2017-May-25 11:30N 38°38' W 009°21'4 8.5
2017-May-25 11:00N 38°41' W 009°17'4 7.9
2017-May-25 10:30N 38°41' W 009°12'0 0.2
2017-May-25 10:00N 38°41' W 009°12'0 0.1
2017-May-25 07:33N 38°41' W 009°12'0 0.1
2017-May-25 07:18N 38°41' W 009°12'0 0.1
2017-May-25 07:00N 38°41' W 009°12'0 0.0
2017-May-25 06:15N 38°41' W 009°12'0 0.0
2017-May-25 05:57N 38°41' W 009°12'0 0.0
2017-May-25 05:30N 38°41' W 009°12'0 0.0
2017-May-25 04:48N 38°41' W 009°12'0 0.1
2017-May-25 04:30N 38°41' W 009°12'0 0.0
2017-May-25 03:57N 38°41' W 009°12'0 0.2
2017-May-25 03:15N 38°41' W 009°12'0 0.2
2017-May-25 02:54N 38°41' W 009°12'0 0.1
2017-May-25 02:30N 38°41' W 009°12'0 0.0
2017-May-25 01:48N 38°41' W 009°12'0 0.1
2017-May-25 01:27N 38°41' W 009°12'0 0.0
2017-May-25 00:45N 38°41' W 009°12'0 0.0
2017-May-24 23:51N 38°41' W 009°12'0 0.0
2017-May-24 23:30N 38°41' W 009°12'0 0.0
2017-May-24 22:21N 38°41' W 009°12'0 0.0
2017-May-24 21:57N 38°41' W 009°12'0 0.1
2017-May-24 20:57N 38°41' W 009°12'0 0.4
2017-May-24 20:30N 38°41' W 009°12'3 6.1
2017-May-24 20:01N 38°41' W 009°16'5 9.8
2017-May-24 19:31N 38°38' W 009°21'3 5.4
2017-May-24 19:01N 38°40' W 009°24'2 3.3
2017-May-24 18:30N 38°40' W 009°26'4 7.4
2017-May-24 18:00N 38°36' W 009°27'3 6.0
2017-May-24 17:30N 38°33' W 009°26'5 9.0
2017-May-24 17:01N 38°29' W 009°23'510.4
2017-May-24 16:30N 38°24' W 009°21'510.8
2017-May-24 16:00N 38°20' W 009°16'611.1
2017-May-24 15:31N 38°20' W 009°09'510.6
2017-May-24 15:01N 38°22' W 009°03'511.0
2017-May-24 14:31N 38°26' W 008°59'6 5.6
2017-May-24 13:26N 38°31' W 008°54'0 0.0
2017-May-24 12:59N 38°31' W 008°54'0 0.0
2017-May-24 12:29N 38°31' W 008°54'0 0.0
2017-May-24 11:59N 38°31' W 008°54'0 0.0
2017-May-24 11:29N 38°31' W 008°54'0 0.0
2017-May-24 10:59N 38°31' W 008°54'0 0.0
2017-May-24 10:29N 38°31' W 008°54'0 0.0
2017-May-24 09:59N 38°31' W 008°54'0 0.1
2017-May-24 09:29N 38°31' W 008°54'0 0.0
2017-May-24 08:59N 38°31' W 008°54'0 0.0
2017-May-24 08:29N 38°31' W 008°54'0 0.0
2017-May-24 07:59N 38°31' W 008°54'0 0.2
2017-May-24 07:29N 38°31' W 008°54'0 0.1
2017-May-24 06:59N 38°31' W 008°54'0 0.0
2017-May-24 06:29N 38°31' W 008°54'0 0.0
2017-May-24 05:59N 38°31' W 008°54'0 0.0
2017-May-24 05:29N 38°31' W 008°54'0 0.0
2017-May-24 04:59N 38°31' W 008°54'0 0.0
2017-May-24 04:29N 38°31' W 008°54'0 0.0
2017-May-24 03:59N 38°31' W 008°54'0 0.0
2017-May-24 03:29N 38°31' W 008°54'0 0.1
2017-May-24 02:59N 38°31' W 008°54'0 0.0
2017-May-24 02:29N 38°31' W 008°54'0 0.2
2017-May-24 02:00N 38°31' W 008°54'2 3.4
2017-May-24 01:30N 38°29' W 008°53'3 6.9
2017-May-24 01:00N 38°28' W 008°49'2 2.1
2017-May-24 00:16N 38°28' W 008°47'0 0.0
2017-May-23 23:58N 38°28' W 008°47'0 0.0
2017-May-23 23:25N 38°28' W 008°47'0 0.0
2017-May-23 22:58N 38°28' W 008°47'0 0.0
2017-May-23 21:07N 38°28' W 008°47'0 0.0
2017-May-23 20:55N 38°28' W 008°47'0 0.0
2017-May-23 20:28N 38°28' W 008°47'0 0.0
2017-May-23 19:58N 38°28' W 008°47'0 0.0
2017-May-23 19:28N 38°28' W 008°47'0 0.0
2017-May-23 18:58N 38°28' W 008°47'0 0.0
2017-May-23 18:28N 38°28' W 008°47'0 0.1
2017-May-23 17:58N 38°29' W 008°47'0 0.0
2017-May-23 17:28N 38°29' W 008°47'0 0.1
2017-May-23 16:58N 38°29' W 008°47'0 0.1
2017-May-23 16:28N 38°29' W 008°47'0 0.0
2017-May-23 15:58N 38°29' W 008°47'0 0.0
2017-May-23 15:28N 38°29' W 008°47'0 0.0
2017-May-23 14:58N 38°29' W 008°47'0 0.0
2017-May-22 21:37N 38°29' W 008°47'0 0.0
2017-May-22 18:25N 38°29' W 008°47'0 0.0
2017-May-22 17:55N 38°29' W 008°47'0 0.0
2017-May-22 14:04N 38°29' W 008°47'0 0.0
2017-May-22 05:22N 38°29' W 008°47'0 0.0
2017-May-22 03:16N 38°29' W 008°47'0 0.0
2017-May-22 02:55N 38°29' W 008°47'0 0.0
2017-May-22 01:22N 38°29' W 008°47'0 0.0
2017-May-22 00:40N 38°29' W 008°47'0 0.0
2017-May-22 00:28N 38°29' W 008°47'0 0.0
2017-May-21 23:52N 38°29' W 008°47'0 0.0
2017-May-21 22:19N 38°29' W 008°47'0 0.0
2017-May-21 21:49N 38°29' W 008°47'0 0.0
2017-May-21 21:22N 38°29' W 008°47'0 0.0
2017-May-21 11:28N 38°29' W 008°47'0 0.0
2017-May-21 10:01N 38°29' W 008°47'0 0.0
2017-May-21 09:46N 38°29' W 008°47'0 0.0
2017-May-21 09:28N 38°29' W 008°47'0 0.0
2017-May-21 08:58N 38°29' W 008°47'0 0.0
2017-May-21 06:34N 38°29' W 008°47'0 0.0
2017-May-21 06:22N 38°29' W 008°47'0 0.0
2017-May-21 05:58N 38°29' W 008°47'0 0.0
2017-May-21 05:28N 38°29' W 008°47'0 0.0
2017-May-21 04:58N 38°29' W 008°47'0 0.0
2017-May-21 03:28N 38°29' W 008°47'0 0.0
2017-May-21 02:58N 38°29' W 008°47'0 0.0
2017-May-21 02:28N 38°29' W 008°47'0 0.0
2017-May-21 01:58N 38°29' W 008°47'0 0.0
2017-May-21 01:28N 38°29' W 008°47'0 0.0
2017-May-21 00:58N 38°29' W 008°47'0 0.0
2017-May-21 00:28N 38°29' W 008°47'0 0.0
2017-May-20 23:58N 38°29' W 008°47'0 0.0
2017-May-20 23:28N 38°29' W 008°47'0 0.0
2017-May-20 22:58N 38°29' W 008°47'0 0.0
2017-May-20 22:28N 38°29' W 008°47'0 0.0
2017-May-20 21:58N 38°29' W 008°47'0 0.0
2017-May-20 21:28N 38°29' W 008°47'0 0.0
2017-May-20 20:58N 38°29' W 008°47'0 0.0
2017-May-20 20:28N 38°29' W 008°47'0 0.0
2017-May-20 19:55N 38°29' W 008°47'0 0.0
2017-May-20 19:28N 38°29' W 008°47'0 0.0
2017-May-20 18:58N 38°29' W 008°47'0 0.0
2017-May-20 18:28N 38°29' W 008°47'0 0.0
2017-May-20 17:58N 38°29' W 008°47'0 0.0
2017-May-20 17:25N 38°29' W 008°47'0 0.0
2017-May-20 16:58N 38°29' W 008°47'0 0.0
2017-May-20 16:28N 38°29' W 008°47'0 0.0
2017-May-20 15:58N 38°29' W 008°47'0 0.0
2017-May-20 15:28N 38°29' W 008°47'0 0.0
2017-May-20 14:58N 38°29' W 008°47'0 0.0
2017-May-20 14:28N 38°29' W 008°47'0 0.0
2017-May-20 13:28N 38°29' W 008°47'0 0.0
2017-May-20 12:58N 38°29' W 008°47'0 0.0
2017-May-20 12:28N 38°29' W 008°47'0 0.0
2017-May-20 11:58N 38°29' W 008°47'0 0.0
2017-May-20 11:28N 38°29' W 008°47'0 0.0
2017-May-20 10:58N 38°29' W 008°47'0 0.0
2017-May-20 10:28N 38°29' W 008°47'0 0.0
2017-May-20 09:58N 38°29' W 008°47'0 0.0
2017-May-20 09:28N 38°29' W 008°47'0 0.0
2017-May-20 08:58N 38°29' W 008°47'0 0.0
2017-May-20 08:28N 38°29' W 008°47'0 0.0
2017-May-20 07:58N 38°29' W 008°47'0 0.0
2017-May-20 07:28N 38°29' W 008°47'0 0.0
2017-May-20 06:58N 38°29' W 008°47'0 0.0
2017-May-20 06:28N 38°29' W 008°47'0 0.0
2017-May-20 05:58N 38°29' W 008°47'0 0.0
2017-May-20 05:28N 38°29' W 008°47'0 0.0
2017-May-20 04:55N 38°29' W 008°47'0 0.0
2017-May-20 04:28N 38°29' W 008°47'0 0.0
2017-May-20 03:58N 38°29' W 008°47'0 0.0
2017-May-20 03:28N 38°29' W 008°47'0 0.0
2017-May-20 02:58N 38°29' W 008°47'0 0.0
2017-May-20 01:28N 38°29' W 008°47'0 0.0
2017-May-19 21:31N 38°29' W 008°47'0 0.0
2017-May-19 21:13N 38°29' W 008°47'0 0.0
2017-May-19 20:58N 38°29' W 008°47'0 0.0
2017-May-19 20:16N 38°29' W 008°47'0 0.0
2017-May-19 19:58N 38°29' W 008°47'0 0.0
2017-May-19 19:28N 38°29' W 008°47'0 0.0
2017-May-19 18:58N 38°29' W 008°47'0 0.0
2017-May-19 18:28N 38°29' W 008°47'0 0.0
2017-May-19 17:58N 38°29' W 008°47'0 0.0
2017-May-19 17:28N 38°29' W 008°47'0 0.0
2017-May-19 16:55N 38°29' W 008°47'0 0.0
2017-May-19 16:25N 38°29' W 008°47'0 0.0
2017-May-19 15:55N 38°29' W 008°47'0 0.0
2017-May-19 15:19N 38°29' W 008°47'0 0.0
2017-May-19 14:49N 38°29' W 008°47'0 0.0
2017-May-19 13:55N 38°29' W 008°47'0 0.0
2017-May-19 13:28N 38°29' W 008°47'0 0.0
2017-May-19 12:49N 38°29' W 008°47'0 0.0
2017-May-19 12:28N 38°29' W 008°47'0 0.0
2017-May-19 11:58N 38°29' W 008°47'0 0.0
2017-May-19 11:28N 38°29' W 008°47'0 0.0
2017-May-19 10:58N 38°29' W 008°47'0 0.0
2017-May-19 10:28N 38°29' W 008°47'0 0.0
2017-May-19 09:58N 38°29' W 008°47'0 0.0
2017-May-19 08:22N 38°29' W 008°47'0 0.0
2017-May-19 07:55N 38°29' W 008°47'0 0.0
2017-May-19 07:22N 38°29' W 008°47'0 0.0
2017-May-19 06:58N 38°29' W 008°47'0 0.0
2017-May-19 06:25N 38°29' W 008°47'0 0.0
2017-May-19 05:58N 38°29' W 008°47'0 0.0
2017-May-19 05:22N 38°29' W 008°47'0 0.0
2017-May-19 04:55N 38°29' W 008°47'0 0.0
2017-May-19 04:25N 38°29' W 008°47'0 0.0
2017-May-19 03:58N 38°29' W 008°47'0 0.0
2017-May-19 03:28N 38°29' W 008°47'0 0.0
2017-May-19 02:55N 38°29' W 008°47'0 0.0
2017-May-19 02:28N 38°29' W 008°47'0 0.0
2017-May-19 01:58N 38°29' W 008°47'0 0.0
2017-May-19 01:25N 38°29' W 008°47'0 0.0
2017-May-19 00:55N 38°29' W 008°47'0 0.0
2017-May-19 00:28N 38°29' W 008°47'0 0.0
2017-May-18 23:58N 38°29' W 008°47'0 0.0
2017-May-18 23:28N 38°29' W 008°47'0 0.0
2017-May-18 22:58N 38°29' W 008°47'0 0.0
2017-May-18 22:28N 38°29' W 008°47'0 0.0
2017-May-18 21:58N 38°29' W 008°47'0 0.0
2017-May-18 21:28N 38°29' W 008°47'0 0.0
2017-May-18 20:58N 38°29' W 008°47'0 0.0
2017-May-18 20:28N 38°29' W 008°47'0 0.0
2017-May-18 19:55N 38°29' W 008°47'0 0.0
2017-May-18 19:28N 38°29' W 008°47'0 0.0
2017-May-18 18:58N 38°29' W 008°47'0 0.0
2017-May-18 18:28N 38°29' W 008°47'0 0.0
2017-May-18 17:58N 38°29' W 008°47'0 0.0
2017-May-18 17:28N 38°29' W 008°47'0 0.0
2017-May-18 16:55N 38°29' W 008°47'0 0.0
2017-May-18 16:28N 38°29' W 008°47'0 0.0
2017-May-18 15:58N 38°29' W 008°47'0 0.0
2017-May-18 15:28N 38°29' W 008°47'0 0.0
2017-May-18 14:58N 38°29' W 008°47'0 0.0
2017-May-18 13:49N 38°29' W 008°47'0 0.0
2017-May-18 13:19N 38°29' W 008°47'0 0.0
2017-May-18 12:31N 38°29' W 008°47'0 0.0
2017-May-18 12:22N 38°29' W 008°47'0 0.0
2017-May-18 11:52N 38°29' W 008°47'0 0.0
2017-May-18 10:52N 38°29' W 008°47'0 0.0
2017-May-18 10:04N 38°29' W 008°47'0 0.0
2017-May-18 09:58N 38°29' W 008°47'0 0.0
2017-May-18 09:25N 38°29' W 008°47'0 0.0
2017-May-18 08:43N 38°29' W 008°47'0 0.0
2017-May-18 08:10N 38°29' W 008°47'0 0.0
2017-May-18 07:58N 38°29' W 008°47'0 0.0
2017-May-18 07:25N 38°29' W 008°47'0 0.0
2017-May-18 06:37N 38°29' W 008°47'0 0.0
2017-May-18 06:28N 38°29' W 008°47'0 0.0
2017-May-18 05:55N 38°29' W 008°47'0 0.0
2017-May-18 05:28N 38°29' W 008°47'0 0.0
2017-May-18 04:58N 38°29' W 008°47'0 0.0
2017-May-18 04:19N 38°29' W 008°47'0 0.0
2017-May-18 03:58N 38°29' W 008°47'0 0.0
2017-May-18 03:25N 38°29' W 008°47'0 0.0
2017-May-18 02:52N 38°29' W 008°47'0 0.0
2017-May-18 02:28N 38°29' W 008°47'0 0.0
2017-May-18 01:58N 38°29' W 008°47'0 0.0
2017-May-18 01:22N 38°29' W 008°47'0 0.0
2017-May-18 00:55N 38°29' W 008°47'0 0.0
2017-May-18 00:28N 38°29' W 008°47'0 0.0
2017-May-17 23:49N 38°29' W 008°47'0 0.0
2017-May-17 23:28N 38°29' W 008°47'0 0.0
2017-May-17 22:58N 38°29' W 008°47'0 0.0
2017-May-17 22:28N 38°29' W 008°47'0 0.0
2017-May-17 21:58N 38°29' W 008°47'0 0.0
2017-May-17 21:25N 38°29' W 008°47'0 0.0
2017-May-17 20:58N 38°29' W 008°47'0 0.0
2017-May-17 20:28N 38°29' W 008°47'0 0.0
2017-May-17 19:58N 38°29' W 008°47'0 0.0
2017-May-17 19:28N 38°29' W 008°47'0 0.0
2017-May-17 18:58N 38°29' W 008°47'0 0.0
2017-May-17 18:25N 38°29' W 008°47'0 0.0
2017-May-17 17:58N 38°29' W 008°47'0 0.0
2017-May-17 17:28N 38°29' W 008°47'0 0.0
2017-May-17 16:58N 38°29' W 008°47'0 0.0
2017-May-17 16:28N 38°29' W 008°47'0 0.0
2017-May-17 15:55N 38°29' W 008°47'0 0.0
2017-May-17 15:28N 38°29' W 008°47'0 0.0
2017-May-17 14:58N 38°29' W 008°47'0 0.0
2017-May-17 13:58N 38°29' W 008°47'0 0.0
2017-May-17 13:28N 38°29' W 008°47'0 0.0
2017-May-17 12:55N 38°29' W 008°47'0 0.0
2017-May-17 12:28N 38°29' W 008°47'0 0.0
2017-May-17 11:58N 38°29' W 008°47'0 0.0
2017-May-17 11:28N 38°29' W 008°47'0 0.0
2017-May-17 10:52N 38°29' W 008°47'0 0.0
2017-May-17 10:28N 38°29' W 008°47'0 0.0
2017-May-17 09:58N 38°29' W 008°47'0 0.0
2017-May-17 09:28N 38°29' W 008°47'0 0.0
2017-May-17 08:58N 38°29' W 008°47'0 0.0
2017-May-17 08:07N 38°29' W 008°47'0 0.0
2017-May-17 07:46N 38°29' W 008°47'0 0.0
2017-May-17 07:28N 38°29' W 008°47'0 0.0
2017-May-17 06:58N 38°29' W 008°47'0 0.0
2017-May-17 06:22N 38°29' W 008°47'0 0.0
2017-May-17 05:58N 38°29' W 008°47'0 0.0
2017-May-17 05:28N 38°29' W 008°47'0 0.0
2017-May-17 04:55N 38°29' W 008°47'0 0.0
2017-May-17 04:28N 38°29' W 008°47'0 0.0
2017-May-17 03:58N 38°29' W 008°47'0 0.0
2017-May-17 03:28N 38°29' W 008°47'0 0.0
2017-May-17 02:49N 38°29' W 008°47'0 0.0
2017-May-17 02:19N 38°29' W 008°47'0 0.0
2017-May-17 01:55N 38°29' W 008°47'0 0.0
2017-May-17 01:28N 38°29' W 008°47'0 0.0
2017-May-17 00:55N 38°29' W 008°47'0 0.0
2017-May-17 00:28N 38°29' W 008°47'0 0.0
2017-May-16 23:58N 38°29' W 008°47'0 0.0
2017-May-16 23:28N 38°29' W 008°47'0 0.0
2017-May-16 22:55N 38°29' W 008°47'0 0.0
2017-May-16 22:28N 38°29' W 008°47'0 0.0
2017-May-16 21:55N 38°29' W 008°47'0 0.0
2017-May-16 21:25N 38°29' W 008°47'0 0.0
2017-May-16 20:58N 38°29' W 008°47'0 0.0
2017-May-16 20:28N 38°29' W 008°47'0 0.0
2017-May-16 19:40N 38°29' W 008°47'0 0.0
2017-May-16 19:25N 38°29' W 008°47'0 0.0
2017-May-16 18:37N 38°29' W 008°47'0 0.0
2017-May-16 18:28N 38°29' W 008°47'0 0.0
2017-May-16 17:58N 38°29' W 008°47'0 0.0
2017-May-16 17:28N 38°29' W 008°47'0 0.0
2017-May-16 16:58N 38°29' W 008°47'0 0.0
2017-May-16 16:25N 38°29' W 008°47'0 0.0
2017-May-16 15:58N 38°29' W 008°47'0 0.0
2017-May-16 15:25N 38°29' W 008°47'0 0.0
2017-May-16 14:52N 38°29' W 008°47'0 0.0
2017-May-16 14:25N 38°29' W 008°47'0 0.0
2017-May-16 13:25N 38°29' W 008°47'0 0.0
2017-May-16 12:58N 38°29' W 008°47'0 0.0
2017-May-16 12:28N 38°29' W 008°47'0 0.0
2017-May-16 11:58N 38°29' W 008°47'0 0.0
2017-May-16 11:28N 38°29' W 008°47'0 0.0
2017-May-16 10:58N 38°29' W 008°47'0 0.0
2017-May-16 10:28N 38°29' W 008°47'0 0.0
2017-May-16 09:55N 38°29' W 008°47'0 0.0
2017-May-16 09:25N 38°29' W 008°47'0 0.0
2017-May-16 08:58N 38°29' W 008°47'0 0.0
2017-May-16 08:28N 38°29' W 008°47'0 0.0
2017-May-16 07:58N 38°29' W 008°47'0 0.0
2017-May-16 07:28N 38°29' W 008°47'0 0.0
2017-May-16 06:58N 38°29' W 008°47'0 0.0
2017-May-16 06:25N 38°29' W 008°47'0 0.0
2017-May-16 05:55N 38°29' W 008°47'0 0.0
2017-May-16 05:25N 38°29' W 008°47'0 0.0
2017-May-16 04:58N 38°29' W 008°47'0 0.0
2017-May-16 03:34N 38°29' W 008°47'0 0.1
2017-May-16 03:28N 38°29' W 008°47'0 0.0
2017-May-16 02:58N 38°29' W 008°47'0 0.0
2017-May-16 02:28N 38°29' W 008°47'0 0.0
2017-May-16 01:49N 38°29' W 008°47'0 0.0
2017-May-16 01:25N 38°29' W 008°47'0 0.0
2017-May-15 22:55N 38°29' W 008°47'0 0.0
2017-May-15 21:34N 38°29' W 008°47'0 0.0
2017-May-15 21:28N 38°29' W 008°47'0 0.0
2017-May-15 20:58N 38°29' W 008°47'0 0.0
2017-May-15 20:19N 38°29' W 008°47'0 0.0
2017-May-15 19:58N 38°29' W 008°47'0 0.0
2017-May-15 19:28N 38°29' W 008°47'0 0.0
2017-May-15 18:55N 38°29' W 008°47'  
Track history (hours):
 
Tides and Currents Weather Stations Pressure Air Temp Water Temp Dewpoint Dewpoint Depression Visibility Wind Speed Wind Dir Waves Ship Positions

Nord Imagination

Last reported at 2017-May-25 18:01 UTC. Time now 2017-May-27 04:26 UTC.
Position N 39°36' W 009°54'.

Length 179 m; draft 8 m.

Type: Ship (hazmat cat D). MMSI: 354828000.

Date/timePositionNaut miles runAvg speedWind from/ knotsBaromVisibWave heightAir tempDewpointWater temp
2017-May-25 18:01N 39°36' W 009°54'212.9
2017-May-25 17:54N 39°35' W 009°54'1013.0
2017-May-25 17:10N 39°25' W 009°54'212.9
2017-May-25 17:01N 39°23' W 009°54'612.7
2017-May-25 16:30N 39°17' W 009°53'613.0
2017-May-25 16:00N 39°10' W 009°53'713.2
2017-May-25 15:30N 39°04' W 009°52'713.1
2017-May-25 15:01N 38°57' W 009°52'1413.8
2017-May-25 14:00N 38°44' W 009°50'612.7
2017-May-25 13:30N 38°38' W 009°47'713.3
2017-May-25 13:00N 38°36' W 009°38'612.0
2017-May-25 12:30N 38°37' W 009°31'510.5
2017-May-25 12:00N 38°38' W 009°24'2 4.9
2017-May-25 11:30N 38°38' W 009°21'4 8.5
2017-May-25 11:00N 38°41' W 009°17'4 7.9
2017-May-25 10:30N 38°41' W 009°12'0 0.2
2017-May-25 10:00N 38°41' W 009°12'0 0.1
2017-May-25 07:33N 38°41' W 009°12'0 0.1
2017-May-25 07:18N 38°41' W 009°12'0 0.1
2017-May-25 07:00N 38°41' W 009°12'0 0.0
2017-May-25 06:15N 38°41' W 009°12'0 0.0
2017-May-25 05:57N 38°41' W 009°12'0 0.0
2017-May-25 05:30N 38°41' W 009°12'0 0.0
2017-May-25 04:48N 38°41' W 009°12'0 0.1
2017-May-25 04:30N 38°41' W 009°12'0 0.0
2017-May-25 03:57N 38°41' W 009°12'0 0.2
2017-May-25 03:15N 38°41' W 009°12'0 0.2
2017-May-25 02:54N 38°41' W 009°12'0 0.1
2017-May-25 02:30N 38°41' W 009°12'0 0.0
2017-May-25 01:48N 38°41' W 009°12'0 0.1
2017-May-25 01:27N 38°41' W 009°12'0 0.0
2017-May-25 00:45N 38°41' W 009°12'0 0.0
2017-May-24 23:51N 38°41' W 009°12'0 0.0
2017-May-24 23:30N 38°41' W 009°12'0 0.0
2017-May-24 22:21N 38°41' W 009°12'0 0.0
2017-May-24 21:57N 38°41' W 009°12'0 0.1
2017-May-24 20:57N 38°41' W 009°12'0 0.4
2017-May-24 20:30N 38°41' W 009°12'3 6.1
2017-May-24 20:01N 38°41' W 009°16'5 9.8
2017-May-24 19:31N 38°38' W 009°21'3 5.4
2017-May-24 19:01N 38°40' W 009°24'2 3.3
2017-May-24 18:30N 38°40' W 009°26'4 7.4
2017-May-24 18:00N 38°36' W 009°27'3 6.0
2017-May-24 17:30N 38°33' W 009°26'5 9.0
2017-May-24 17:01N 38°29' W 009°23'510.4
2017-May-24 16:30N 38°24' W 009°21'510.8
2017-May-24 16:00N 38°20' W 009°16'611.1
2017-May-24 15:31N 38°20' W 009°09'510.6
2017-May-24 15:01N 38°22' W 009°03'511.0
2017-May-24 14:31N 38°26' W 008°59'6 5.6
2017-May-24 13:26N 38°31' W 008°54'0 0.0
2017-May-24 12:59N 38°31' W 008°54'0 0.0
2017-May-24 12:29N 38°31' W 008°54'0 0.0
2017-May-24 11:59N 38°31' W 008°54'0 0.0
2017-May-24 11:29N 38°31' W 008°54'0 0.0
2017-May-24 10:59N 38°31' W 008°54'0 0.0
2017-May-24 10:29N 38°31' W 008°54'0 0.0
2017-May-24 09:59N 38°31' W 008°54'0 0.1
2017-May-24 09:29N 38°31' W 008°54'0 0.0
2017-May-24 08:59N 38°31' W 008°54'0 0.0
2017-May-24 08:29N 38°31' W 008°54'0 0.0
2017-May-24 07:59N 38°31' W 008°54'0 0.2
2017-May-24 07:29N 38°31' W 008°54'0 0.1
2017-May-24 06:59N 38°31' W 008°54'0 0.0
2017-May-24 06:29N 38°31' W 008°54'0 0.0
2017-May-24 05:59N 38°31' W 008°54'0 0.0
2017-May-24 05:29N 38°31' W 008°54'0 0.0
2017-May-24 04:59N 38°31' W 008°54'0 0.0
2017-May-24 04:29N 38°31' W 008°54'0 0.0
2017-May-24 03:59N 38°31' W 008°54'0 0.0
2017-May-24 03:29N 38°31' W 008°54'0 0.1
2017-May-24 02:59N 38°31' W 008°54'0 0.0
2017-May-24 02:29N 38°31' W 008°54'0 0.2
2017-May-24 02:00N 38°31' W 008°54'2 3.4
2017-May-24 01:30N 38°29' W 008°53'3 6.9
2017-May-24 01:00N 38°28' W 008°49'2 2.1
2017-May-24 00:16N 38°28' W 008°47'0 0.0
2017-May-23 23:58N 38°28' W 008°47'0 0.0
2017-May-23 23:25N 38°28' W 008°47'0 0.0
2017-May-23 22:58N 38°28' W 008°47'0 0.0
2017-May-23 21:07N 38°28' W 008°47'0 0.0
2017-May-23 20:55N 38°28' W 008°47'0 0.0
2017-May-23 20:28N 38°28' W 008°47'0 0.0
2017-May-23 19:58N 38°28' W 008°47'0 0.0
2017-May-23 19:28N 38°28' W 008°47'0 0.0
2017-May-23 18:58N 38°28' W 008°47'0 0.0
2017-May-23 18:28N 38°28' W 008°47'0 0.1
2017-May-23 17:58N 38°29' W 008°47'0 0.0
2017-May-23 17:28N 38°29' W 008°47'0 0.1
2017-May-23 16:58N 38°29' W 008°47'0 0.1
2017-May-23 16:28N 38°29' W 008°47'0 0.0
2017-May-23 15:58N 38°29' W 008°47'0 0.0
2017-May-23 15:28N 38°29' W 008°47'0 0.0
2017-May-23 14:58N 38°29' W 008°47'0 0.0
2017-May-22 21:37N 38°29' W 008°47'0 0.0
2017-May-22 18:25N 38°29' W 008°47'0 0.0
2017-May-22 17:55N 38°29' W 008°47'0 0.0
2017-May-22 14:04N 38°29' W 008°47'0 0.0
2017-May-22 05:22N 38°29' W 008°47'0 0.0
2017-May-22 03:16N 38°29' W 008°47'0 0.0
2017-May-22 02:55N 38°29' W 008°47'0 0.0
2017-May-22 01:22N 38°29' W 008°47'0 0.0
2017-May-22 00:40N 38°29' W 008°47'0 0.0
2017-May-22 00:28N 38°29' W 008°47'0 0.0
2017-May-21 23:52N 38°29' W 008°47'0 0.0
2017-May-21 22:19N 38°29' W 008°47'0 0.0
2017-May-21 21:49N 38°29' W 008°47'0 0.0
2017-May-21 21:22N 38°29' W 008°47'0 0.0
2017-May-21 11:28N 38°29' W 008°47'0 0.0
2017-May-21 10:01N 38°29' W 008°47'0 0.0
2017-May-21 09:46N 38°29' W 008°47'0 0.0
2017-May-21 09:28N 38°29' W 008°47'0 0.0
2017-May-21 08:58N 38°29' W 008°47'0 0.0
2017-May-21 06:34N 38°29' W 008°47'0 0.0
2017-May-21 06:22N 38°29' W 008°47'0 0.0
2017-May-21 05:58N 38°29' W 008°47'0 0.0
2017-May-21 05:28N 38°29' W 008°47'0 0.0
2017-May-21 04:58N 38°29' W 008°47'0 0.0
2017-May-21 03:28N 38°29' W 008°47'0 0.0
2017-May-21 02:58N 38°29' W 008°47'0 0.0
2017-May-21 02:28N 38°29' W 008°47'0 0.0
2017-May-21 01:58N 38°29' W 008°47'0 0.0
2017-May-21 01:28N 38°29' W 008°47'0 0.0
2017-May-21 00:58N 38°29' W 008°47'0 0.0
2017-May-21 00:28N 38°29' W 008°47'0 0.0
2017-May-20 23:58N 38°29' W 008°47'0 0.0
2017-May-20 23:28N 38°29' W 008°47'0 0.0
2017-May-20 22:58N 38°29' W 008°47'0 0.0
2017-May-20 22:28N 38°29' W 008°47'0 0.0
2017-May-20 21:58N 38°29' W 008°47'0 0.0
2017-May-20 21:28N 38°29' W 008°47'0 0.0
2017-May-20 20:58N 38°29' W 008°47'0 0.0
2017-May-20 20:28N 38°29' W 008°47'0 0.0
2017-May-20 19:55N 38°29' W 008°47'0 0.0
2017-May-20 19:28N 38°29' W 008°47'0 0.0
2017-May-20 18:58N 38°29' W 008°47'0 0.0
2017-May-20 18:28N 38°29' W 008°47'0 0.0
2017-May-20 17:58N 38°29' W 008°47'0 0.0
2017-May-20 17:25N 38°29' W 008°47'0 0.0
2017-May-20 16:58N 38°29' W 008°47'0 0.0
2017-May-20 16:28N 38°29' W 008°47'0 0.0
2017-May-20 15:58N 38°29' W 008°47'0 0.0
2017-May-20 15:28N 38°29' W 008°47'0 0.0
2017-May-20 14:58N 38°29' W 008°47'0 0.0
2017-May-20 14:28N 38°29' W 008°47'0 0.0
2017-May-20 13:28N 38°29' W 008°47'0 0.0
2017-May-20 12:58N 38°29' W 008°47'0 0.0
2017-May-20 12:28N 38°29' W 008°47'0 0.0
2017-May-20 11:58N 38°29' W 008°47'0 0.0
2017-May-20 11:28N 38°29' W 008°47'0 0.0
2017-May-20 10:58N 38°29' W 008°47'0 0.0
2017-May-20 10:28N 38°29' W 008°47'0 0.0
2017-May-20 09:58N 38°29' W 008°47'0 0.0
2017-May-20 09:28N 38°29' W 008°47'0 0.0
2017-May-20 08:58N 38°29' W 008°47'0 0.0
2017-May-20 08:28N 38°29' W 008°47'0 0.0
2017-May-20 07:58N 38°29' W 008°47'0 0.0
2017-May-20 07:28N 38°29' W 008°47'0 0.0
2017-May-20 06:58N 38°29' W 008°47'0 0.0
2017-May-20 06:28N 38°29' W 008°47'0 0.0
2017-May-20 05:58N 38°29' W 008°47'0 0.0
2017-May-20 05:28N 38°29' W 008°47'0 0.0
2017-May-20 04:55N 38°29' W 008°47'0 0.0
2017-May-20 04:28N 38°29' W 008°47'0 0.0
2017-May-20 03:58N 38°29' W 008°47'0 0.0
2017-May-20 03:28N 38°29' W 008°47'0 0.0
2017-May-20 02:58N 38°29' W 008°47'0 0.0
2017-May-20 01:28N 38°29' W 008°47'0 0.0
2017-May-19 21:31N 38°29' W 008°47'0 0.0
2017-May-19 21:13N 38°29' W 008°47'0 0.0
2017-May-19 20:58N 38°29' W 008°47'0 0.0
2017-May-19 20:16N 38°29' W 008°47'0 0.0
2017-May-19 19:58N 38°29' W 008°47'0 0.0
2017-May-19 19:28N 38°29' W 008°47'0 0.0
2017-May-19 18:58N 38°29' W 008°47'0 0.0
2017-May-19 18:28N 38°29' W 008°47'0 0.0
2017-May-19 17:58N 38°29' W 008°47'0 0.0
2017-May-19 17:28N 38°29' W 008°47'0 0.0
2017-May-19 16:55N 38°29' W 008°47'0 0.0
2017-May-19 16:25N 38°29' W 008°47'0 0.0
2017-May-19 15:55N 38°29' W 008°47'0 0.0
2017-May-19 15:19N 38°29' W 008°47'0 0.0
2017-May-19 14:49N 38°29' W 008°47'0 0.0
2017-May-19 13:55N 38°29' W 008°47'0 0.0
2017-May-19 13:28N 38°29' W 008°47'0 0.0
2017-May-19 12:49N 38°29' W 008°47'0 0.0
2017-May-19 12:28N 38°29' W 008°47'0 0.0
2017-May-19 11:58N 38°29' W 008°47'0 0.0
2017-May-19 11:28N 38°29' W 008°47'0 0.0
2017-May-19 10:58N 38°29' W 008°47'0 0.0
2017-May-19 10:28N 38°29' W 008°47'0 0.0
2017-May-19 09:58N 38°29' W 008°47'0 0.0
2017-May-19 08:22N 38°29' W 008°47'0 0.0
2017-May-19 07:55N 38°29' W 008°47'0 0.0
2017-May-19 07:22N 38°29' W 008°47'0 0.0
2017-May-19 06:58N 38°29' W 008°47'0 0.0
2017-May-19 06:25N 38°29' W 008°47'0 0.0
2017-May-19 05:58N 38°29' W 008°47'0 0.0
2017-May-19 05:22N 38°29' W 008°47'0 0.0
2017-May-19 04:55N 38°29' W 008°47'0 0.0
2017-May-19 04:25N 38°29' W 008°47'0 0.0
2017-May-19 03:58N 38°29' W 008°47'0 0.0
2017-May-19 03:28N 38°29' W 008°47'0 0.0
2017-May-19 02:55N 38°29' W 008°47'0 0.0
2017-May-19 02:28N 38°29' W 008°47'0 0.0
2017-May-19 01:58N 38°29' W 008°47'0 0.0
2017-May-19 01:25N 38°29' W 008°47'0 0.0
2017-May-19 00:55N 38°29' W 008°47'0 0.0
2017-May-19 00:28N 38°29' W 008°47'0 0.0
2017-May-18 23:58N 38°29' W 008°47'0 0.0
2017-May-18 23:28N 38°29' W 008°47'0 0.0
2017-May-18 22:58N 38°29' W 008°47'0 0.0
2017-May-18 22:28N 38°29' W 008°47'0 0.0
2017-May-18 21:58N 38°29' W 008°47'0 0.0
2017-May-18 21:28N 38°29' W 008°47'0 0.0
2017-May-18 20:58N 38°29' W 008°47'0 0.0
2017-May-18 20:28N 38°29' W 008°47'0 0.0
2017-May-18 19:55N 38°29' W 008°47'0 0.0
2017-May-18 19:28N 38°29' W 008°47'0 0.0
2017-May-18 18:58N 38°29' W 008°47'0 0.0
2017-May-18 18:28N 38°29' W 008°47'0 0.0
2017-May-18 17:58N 38°29' W 008°47'0 0.0
2017-May-18 17:28N 38°29' W 008°47'0 0.0
2017-May-18 16:55N 38°29' W 008°47'0 0.0
2017-May-18 16:28N 38°29' W 008°47'0 0.0
2017-May-18 15:58N 38°29' W 008°47'0 0.0
2017-May-18 15:28N 38°29' W 008°47'0 0.0
2017-May-18 14:58N 38°29' W 008°47'0 0.0
2017-May-18 13:49N 38°29' W 008°47'0 0.0
2017-May-18 13:19N 38°29' W 008°47'0 0.0
2017-May-18 12:31N 38°29' W 008°47'0 0.0
2017-May-18 12:22N 38°29' W 008°47'0 0.0
2017-May-18 11:52N 38°29' W 008°47'0 0.0
2017-May-18 10:52N 38°29' W 008°47'0 0.0
2017-May-18 10:04N 38°29' W 008°47'0 0.0
2017-May-18 09:58N 38°29' W 008°47'0 0.0
2017-May-18 09:25N 38°29' W 008°47'0 0.0
2017-May-18 08:43N 38°29' W 008°47'0 0.0
2017-May-18 08:10N 38°29' W 008°47'0 0.0
2017-May-18 07:58N 38°29' W 008°47'0 0.0
2017-May-18 07:25N 38°29' W 008°47'0 0.0
2017-May-18 06:37N 38°29' W 008°47'0 0.0
2017-May-18 06:28N 38°29' W 008°47'0 0.0
2017-May-18 05:55N 38°29' W 008°47'0 0.0
2017-May-18 05:28N 38°29' W 008°47'0 0.0
2017-May-18 04:58N 38°29' W 008°47'0 0.0
2017-May-18 04:19N 38°29' W 008°47'0 0.0
2017-May-18 03:58N 38°29' W 008°47'0 0.0
2017-May-18 03:25N 38°29' W 008°47'0 0.0
2017-May-18 02:52N 38°29' W 008°47'0 0.0
2017-May-18 02:28N 38°29' W 008°47'0 0.0
2017-May-18 01:58N 38°29' W 008°47'0 0.0
2017-May-18 01:22N 38°29' W 008°47'0 0.0
2017-May-18 00:55N 38°29' W 008°47'0 0.0
2017-May-18 00:28N 38°29' W 008°47'0 0.0
2017-May-17 23:49N 38°29' W 008°47'0 0.0
2017-May-17 23:28N 38°29' W 008°47'0 0.0
2017-May-17 22:58N 38°29' W 008°47'0 0.0
2017-May-17 22:28N 38°29' W 008°47'0 0.0
2017-May-17 21:58N 38°29' W 008°47'0 0.0
2017-May-17 21:25N 38°29' W 008°47'0 0.0
2017-May-17 20:58N 38°29' W 008°47'0 0.0
2017-May-17 20:28N 38°29' W 008°47'0 0.0
2017-May-17 19:58N 38°29' W 008°47'0 0.0
2017-May-17 19:28N 38°29' W 008°47'0 0.0
2017-May-17 18:58N 38°29' W 008°47'0 0.0
2017-May-17 18:25N 38°29' W 008°47'0 0.0
2017-May-17 17:58N 38°29' W 008°47'0 0.0
2017-May-17 17:28N 38°29' W 008°47'0 0.0
2017-May-17 16:58N 38°29' W 008°47'0 0.0
2017-May-17 16:28N 38°29' W 008°47'0 0.0
2017-May-17 15:55N 38°29' W 008°47'0 0.0
2017-May-17 15:28N 38°29' W 008°47'0 0.0
2017-May-17 14:58N 38°29' W 008°47'0 0.0
2017-May-17 13:58N 38°29' W 008°47'0 0.0
2017-May-17 13:28N 38°29' W 008°47'0 0.0
2017-May-17 12:55N 38°29' W 008°47'0 0.0
2017-May-17 12:28N 38°29' W 008°47'0 0.0
2017-May-17 11:58N 38°29' W 008°47'0 0.0
2017-May-17 11:28N 38°29' W 008°47'0 0.0
2017-May-17 10:52N 38°29' W 008°47'0 0.0
2017-May-17 10:28N 38°29' W 008°47'0 0.0
2017-May-17 09:58N 38°29' W 008°47'0 0.0
2017-May-17 09:28N 38°29' W 008°47'0 0.0
2017-May-17 08:58N 38°29' W 008°47'0 0.0
2017-May-17 08:07N 38°29' W 008°47'0 0.0
2017-May-17 07:46N 38°29' W 008°47'0 0.0
2017-May-17 07:28N 38°29' W 008°47'0 0.0
2017-May-17 06:58N 38°29' W 008°47'0 0.0
2017-May-17 06:22N 38°29' W 008°47'0 0.0
2017-May-17 05:58N 38°29' W 008°47'0 0.0
2017-May-17 05:28N 38°29' W 008°47'0 0.0
2017-May-17 04:55N 38°29' W 008°47'0 0.0
2017-May-17 04:28N 38°29' W 008°47'0 0.0
2017-May-17 03:58N 38°29' W 008°47'0 0.0
2017-May-17 03:28N 38°29' W 008°47'0 0.0
2017-May-17 02:49N 38°29' W 008°47'0 0.0
2017-May-17 02:19N 38°29' W 008°47'0 0.0
2017-May-17 01:55N 38°29' W 008°47'0 0.0
2017-May-17 01:28N 38°29' W 008°47'0 0.0
2017-May-17 00:55N 38°29' W 008°47'0 0.0
2017-May-17 00:28N 38°29' W 008°47'0 0.0
2017-May-16 23:58N 38°29' W 008°47'0 0.0
2017-May-16 23:28N 38°29' W 008°47'0 0.0
2017-May-16 22:55N 38°29' W 008°47'0 0.0
2017-May-16 22:28N 38°29' W 008°47'0 0.0
2017-May-16 21:55N 38°29' W 008°47'0 0.0
2017-May-16 21:25N 38°29' W 008°47'0 0.0
2017-May-16 20:58N 38°29' W 008°47'0 0.0
2017-May-16 20:28N 38°29' W 008°47'0 0.0
2017-May-16 19:40N 38°29' W 008°47'0 0.0
2017-May-16 19:25N 38°29' W 008°47'0 0.0
2017-May-16 18:37N 38°29' W 008°47'0 0.0
2017-May-16 18:28N 38°29' W 008°47'0 0.0
2017-May-16 17:58N 38°29' W 008°47'0 0.0
2017-May-16 17:28N 38°29' W 008°47'0 0.0
2017-May-16 16:58N 38°29' W 008°47'0 0.0
2017-May-16 16:25N 38°29' W 008°47'0 0.0
2017-May-16 15:58N 38°29' W 008°47'0 0.0
2017-May-16 15:25N 38°29' W 008°47'0 0.0
2017-May-16 14:52N 38°29' W 008°47'0 0.0
2017-May-16 14:25N 38°29' W 008°47'0 0.0
2017-May-16 13:25N 38°29' W 008°47'0 0.0
2017-May-16 12:58N 38°29' W 008°47'0 0.0
2017-May-16 12:28N 38°29' W 008°47'0 0.0
2017-May-16 11:58N 38°29' W 008°47'0 0.0
2017-May-16 11:28N 38°29' W 008°47'0 0.0
2017-May-16 10:58N 38°29' W 008°47'0 0.0
2017-May-16 10:28N 38°29' W 008°47'0 0.0
2017-May-16 09:55N 38°29' W 008°47'0 0.0
2017-May-16 09:25N 38°29' W 008°47'0 0.0
2017-May-16 08:58N 38°29' W 008°47'0 0.0
2017-May-16 08:28N 38°29' W 008°47'0 0.0
2017-May-16 07:58N 38°29' W 008°47'0 0.0
2017-May-16 07:28N 38°29' W 008°47'0 0.0
2017-May-16 06:58N 38°29' W 008°47'0 0.0
2017-May-16 06:25N 38°29' W 008°47'0 0.0
2017-May-16 05:55N 38°29' W 008°47'0 0.0
2017-May-16 05:25N 38°29' W 008°47'0 0.0
2017-May-16 04:58N 38°29' W 008°47'0 0.0
2017-May-16 03:34N 38°29' W 008°47'0 0.1
2017-May-16 03:28N 38°29' W 008°47'0 0.0
2017-May-16 02:58N 38°29' W 008°47'0 0.0
2017-May-16 02:28N 38°29' W 008°47'0 0.0
2017-May-16 01:49N 38°29' W 008°47'0 0.0
2017-May-16 01:25N 38°29' W 008°47'0 0.0
2017-May-15 22:55N 38°29' W 008°47'0 0.0
2017-May-15 21:34N 38°29' W 008°47'0 0.0
2017-May-15 21:28N 38°29' W 008°47'0 0.0
2017-May-15 20:58N 38°29' W 008°47'0 0.0
2017-May-15 20:19N 38°29' W 008°47'0 0.0
2017-May-15 19:58N 38°29' W 008°47'0 0.0
2017-May-15 19:28N 38°29' W 008°47'0 0.0
2017-May-15 18:55N 38°29' W 008°47'  

Dump ship's entire track history